sensor_id;sensor_type;location;lat;lon;timestamp;pressure;altitude;pressure_sealevel;temperature
64904;BMP280;51401;48.882;12.598;2023-04-24T00:00:00;17670.47;;;11.98
64904;BMP280;51401;48.882;12.598;2023-04-24T00:02:26;17680.25;;;11.96
64904;BMP280;51401;48.882;12.598;2023-04-24T00:04:51;17503.97;;;11.99
64904;BMP280;51401;48.882;12.598;2023-04-24T00:07:16;17634.28;;;11.93
64904;BMP280;51401;48.882;12.598;2023-04-24T00:09:42;17687.06;;;11.91
64904;BMP280;51401;48.882;12.598;2023-04-24T00:12:08;17619.16;;;11.93
64904;BMP280;51401;48.882;12.598;2023-04-24T00:14:34;17825.88;;;11.91
64904;BMP280;51401;48.882;12.598;2023-04-24T00:17:00;17732.88;;;11.93
64904;BMP280;51401;48.882;12.598;2023-04-24T00:19:26;17760.47;;;11.92
64904;BMP280;51401;48.882;12.598;2023-04-24T00:21:51;17564.09;;;11.96
64904;BMP280;51401;48.882;12.598;2023-04-24T00:24:17;17544.22;;;11.98
64904;BMP280;51401;48.882;12.598;2023-04-24T00:26:44;17810.56;;;11.90
64904;BMP280;51401;48.882;12.598;2023-04-24T00:29:09;17669.97;;;11.95
64904;BMP280;51401;48.882;12.598;2023-04-24T00:31:34;17415.84;;;12.00
64904;BMP280;51401;48.882;12.598;2023-04-24T00:34:00;17337.56;;;12.00
64904;BMP280;51401;48.882;12.598;2023-04-24T00:36:27;17465.94;;;11.98
64904;BMP280;51401;48.882;12.598;2023-04-24T00:38:53;17609.22;;;11.94
64904;BMP280;51401;48.882;12.598;2023-04-24T00:41:18;17732.28;;;11.90
64904;BMP280;51401;48.882;12.598;2023-04-24T00:43:44;17362.31;;;11.97
64904;BMP280;51401;48.882;12.598;2023-04-24T00:46:09;17472.84;;;11.94
64904;BMP280;51401;48.882;12.598;2023-04-24T00:48:35;17722.00;;;11.89
64904;BMP280;51401;48.882;12.598;2023-04-24T00:51:01;17599.13;;;11.94
64904;BMP280;51401;48.882;12.598;2023-04-24T00:53:26;17549.09;;;11.97
64904;BMP280;51401;48.882;12.598;2023-04-24T00:55:51;17737.75;;;11.92
64904;BMP280;51401;48.882;12.598;2023-04-24T00:58:17;17821.00;;;11.92
64904;BMP280;51401;48.882;12.598;2023-04-24T01:00:43;17987.00;;;11.88
64904;BMP280;51401;48.882;12.598;2023-04-24T01:03:10;18037.84;;;11.90
64904;BMP280;51401;48.882;12.598;2023-04-24T01:05:36;18098.19;;;11.88
64904;BMP280;51401;48.882;12.598;2023-04-24T01:08:01;18065.34;;;11.88
64904;BMP280;51401;48.882;12.598;2023-04-24T01:10:27;17972.25;;;11.90
64904;BMP280;51401;48.882;12.598;2023-04-24T01:12:53;17853.50;;;11.90
64904;BMP280;51401;48.882;12.598;2023-04-24T01:15:18;17586.66;;;11.95
64904;BMP280;51401;48.882;12.598;2023-04-24T01:17:43;17649.03;;;11.90
64904;BMP280;51401;48.882;12.598;2023-04-24T01:20:09;17573.53;;;11.92
64904;BMP280;51401;48.882;12.598;2023-04-24T01:22:35;17664.19;;;11.90
64904;BMP280;51401;48.882;12.598;2023-04-24T01:25:02;17669.16;;;11.90
64904;BMP280;51401;48.882;12.598;2023-04-24T01:27:27;17508.22;;;11.94
64904;BMP280;51401;48.882;12.598;2023-04-24T01:29:53;17535.75;;;11.92
64904;BMP280;51401;48.882;12.598;2023-04-24T01:32:18;17487.94;;;11.93
64904;BMP280;51401;48.882;12.598;2023-04-24T01:34:45;17176.03;;;12.01
64904;BMP280;51401;48.882;12.598;2023-04-24T01:37:10;17326.56;;;11.95
64904;BMP280;51401;48.882;12.598;2023-04-24T01:39:35;17276.38;;;11.97
64904;BMP280;51401;48.882;12.598;2023-04-24T01:42:01;17200.78;;;11.98
64904;BMP280;51401;48.882;12.598;2023-04-24T01:44:27;17195.59;;;11.97
64904;BMP280;51401;48.882;12.598;2023-04-24T01:46:54;17205.63;;;11.96
64904;BMP280;51401;48.882;12.598;2023-04-24T01:49:20;17230.63;;;11.95
64904;BMP280;51401;48.882;12.598;2023-04-24T01:51:45;17235.66;;;11.95
64904;BMP280;51401;48.882;12.598;2023-04-24T01:54:11;17162.75;;;11.97
64904;BMP280;51401;48.882;12.598;2023-04-24T01:56:37;17129.88;;;11.96
64904;BMP280;51401;48.882;12.598;2023-04-24T01:59:04;17069.66;;;11.99
64904;BMP280;51401;48.882;12.598;2023-04-24T02:01:37;17070.13;;;12.02
64904;BMP280;51401;48.882;12.598;2023-04-24T02:04:03;16999.34;;;12.01
64904;BMP280;51401;48.882;12.598;2023-04-24T02:06:29;16896.44;;;12.05
64904;BMP280;51401;48.882;12.598;2023-04-24T02:08:56;16835.78;;;12.05
64904;BMP280;51401;48.882;12.598;2023-04-24T02:11:21;16692.16;;;12.07
64904;BMP280;51401;48.882;12.598;2023-04-24T02:13:46;16666.81;;;12.06
64904;BMP280;51401;48.882;12.598;2023-04-24T02:16:11;16699.28;;;12.04
64904;BMP280;51401;48.882;12.598;2023-04-24T02:18:37;16691.56;;;12.03
64904;BMP280;51401;48.882;12.598;2023-04-24T02:21:02;16611.22;;;12.06
64904;BMP280;51401;48.882;12.598;2023-04-24T02:23:27;16254.00;;;12.14
64904;BMP280;51401;48.882;12.598;2023-04-24T02:25:53;16349.22;;;12.09
64904;BMP280;51401;48.882;12.598;2023-04-24T02:28:19;16414.44;;;12.07
64904;BMP280;51401;48.882;12.598;2023-04-24T02:30:44;16328.88;;;12.08
64904;BMP280;51401;48.882;12.598;2023-04-24T02:33:11;16429.38;;;12.05
64904;BMP280;51401;48.882;12.598;2023-04-24T02:35:36;16574.97;;;12.00
64904;BMP280;51401;48.882;12.598;2023-04-24T02:38:01;16602.81;;;12.00
64904;BMP280;51401;48.882;12.598;2023-04-24T02:40:28;16758.75;;;11.96
64904;BMP280;51401;48.882;12.598;2023-04-24T02:42:53;16869.44;;;11.94
64904;BMP280;51401;48.882;12.598;2023-04-24T02:45:18;16399.50;;;12.08
64904;BMP280;51401;48.882;12.598;2023-04-24T02:47:44;16545.28;;;12.04
64904;BMP280;51401;48.882;12.598;2023-04-24T02:50:09;16901.94;;;11.92
64904;BMP280;51401;48.882;12.598;2023-04-24T02:52:34;16841.91;;;11.95
64904;BMP280;51401;48.882;12.598;2023-04-24T02:55:00;16939.88;;;11.92
64904;BMP280;51401;48.882;12.598;2023-04-24T02:57:25;16957.63;;;11.93
64904;BMP280;51401;48.882;12.598;2023-04-24T02:59:50;17033.22;;;11.92
64904;BMP280;51401;48.882;12.598;2023-04-24T03:02:15;17237.09;;;11.88
64904;BMP280;51401;48.882;12.598;2023-04-24T03:04:41;17357.78;;;11.85
64904;BMP280;51401;48.882;12.598;2023-04-24T03:07:07;17332.94;;;11.87
64904;BMP280;51401;48.882;12.598;2023-04-24T03:09:33;17353.38;;;11.89
64904;BMP280;51401;48.882;12.598;2023-04-24T03:11:58;17358.75;;;11.91
64904;BMP280;51401;48.882;12.598;2023-04-24T03:14:23;17459.34;;;11.88
64904;BMP280;51401;48.882;12.598;2023-04-24T03:16:49;17472.22;;;11.90
64904;BMP280;51401;48.882;12.598;2023-04-24T03:19:15;17572.78;;;11.87
64904;BMP280;51401;48.882;12.598;2023-04-24T03:21:40;17653.34;;;11.86
64904;BMP280;51401;48.882;12.598;2023-04-24T03:24:07;17648.38;;;11.86
64904;BMP280;51401;48.882;12.598;2023-04-24T03:26:32;17744.16;;;11.85
64904;BMP280;51401;48.882;12.598;2023-04-24T03:28:58;17844.72;;;11.83
64904;BMP280;51401;48.882;12.598;2023-04-24T03:31:23;17795.00;;;11.87
64904;BMP280;51401;48.882;12.598;2023-04-24T03:33:48;17930.75;;;11.84
64904;BMP280;51401;48.882;12.598;2023-04-24T03:36:14;17940.84;;;11.84
64904;BMP280;51401;48.882;12.598;2023-04-24T03:38:39;18142.00;;;11.79
64904;BMP280;51401;48.882;12.598;2023-04-24T03:41:04;18006.50;;;11.84
64904;BMP280;51401;48.882;12.598;2023-04-24T03:43:29;18097.06;;;11.82
64904;BMP280;51401;48.882;12.598;2023-04-24T03:45:55;18205.31;;;11.80
64904;BMP280;51401;48.882;12.598;2023-04-24T03:48:20;18094.97;;;11.84
64904;BMP280;51401;48.882;12.598;2023-04-24T03:50:45;18094.97;;;11.84
64904;BMP280;51401;48.882;12.598;2023-04-24T03:53:10;18133.28;;;11.87
64904;BMP280;51401;48.882;12.598;2023-04-24T03:55:36;18319.81;;;11.85
64904;BMP280;51401;48.882;12.598;2023-04-24T03:58:01;18551.53;;;11.81
64904;BMP280;51401;48.882;12.598;2023-04-24T04:00:26;18785.78;;;11.78
64904;BMP280;51401;48.882;12.598;2023-04-24T04:02:52;18899.25;;;11.77
64904;BMP280;51401;48.882;12.598;2023-04-24T04:05:18;19070.44;;;11.74
64904;BMP280;51401;48.882;12.598;2023-04-24T04:07:43;19153.59;;;11.73
64904;BMP280;51401;48.882;12.598;2023-04-24T04:10:08;19149.03;;;11.76
64904;BMP280;51401;48.882;12.598;2023-04-24T04:12:34;19229.84;;;11.76
64904;BMP280;51401;48.882;12.598;2023-04-24T04:14:59;19340.41;;;11.73
64904;BMP280;51401;48.882;12.598;2023-04-24T04:17:25;19245.09;;;11.76
64904;BMP280;51401;48.882;12.598;2023-04-24T04:19:50;19270.34;;;11.76
64904;BMP280;51401;48.882;12.598;2023-04-24T04:22:15;19441.34;;;11.72
64904;BMP280;51401;48.882;12.598;2023-04-24T04:24:40;19446.59;;;11.73
64904;BMP280;51401;48.882;12.598;2023-04-24T04:27:06;19426.59;;;11.74
64904;BMP280;51401;48.882;12.598;2023-04-24T04:29:33;19497.00;;;11.73
64904;BMP280;51401;48.882;12.598;2023-04-24T04:31:59;19577.34;;;11.70
64904;BMP280;51401;48.882;12.598;2023-04-24T04:34:25;75628.25;;;-137.53
64904;BMP280;51401;48.882;12.598;2023-04-24T04:36:50;19839.06;;;11.78
64904;BMP280;51401;48.882;12.598;2023-04-24T04:39:15;19780.16;;;11.74
64904;BMP280;51401;48.882;12.598;2023-04-24T04:41:41;19789.56;;;11.70
64904;BMP280;51401;48.882;12.598;2023-04-24T04:44:07;19724.47;;;11.73
64904;BMP280;51401;48.882;12.598;2023-04-24T04:46:33;19784.69;;;11.71
64904;BMP280;51401;48.882;12.598;2023-04-24T04:49:00;19689.09;;;11.73
64904;BMP280;51401;48.882;12.598;2023-04-24T04:51:26;19656.47;;;11.74
64904;BMP280;51401;48.882;12.598;2023-04-24T04:53:52;19696.88;;;11.74
64904;BMP280;51401;48.882;12.598;2023-04-24T04:56:17;19699.59;;;11.75
64904;BMP280;51401;48.882;12.598;2023-04-24T04:58:42;19689.31;;;11.74
64904;BMP280;51401;48.882;12.598;2023-04-24T05:01:08;19556.50;;;11.79
64904;BMP280;51401;48.882;12.598;2023-04-24T05:03:33;19822.69;;;11.72
64904;BMP280;51401;48.882;12.598;2023-04-24T05:05:58;19734.97;;;11.75
64904;BMP280;51401;48.882;12.598;2023-04-24T05:08:23;19742.66;;;11.76
64904;BMP280;51401;48.882;12.598;2023-04-24T05:10:49;19782.97;;;11.75
64904;BMP280;51401;48.882;12.598;2023-04-24T05:13:14;19580.03;;;11.83
64904;BMP280;51401;48.882;12.598;2023-04-24T05:15:40;19640.34;;;11.82
64904;BMP280;51401;48.882;12.598;2023-04-24T05:18:05;19844.00;;;11.77
64904;BMP280;51401;48.882;12.598;2023-04-24T05:20:30;19997.31;;;11.73
64904;BMP280;51401;48.882;12.598;2023-04-24T05:22:55;19872.19;;;11.79
64904;BMP280;51401;48.882;12.598;2023-04-24T05:25:21;19796.91;;;11.81
64904;BMP280;51401;48.882;12.598;2023-04-24T05:27:46;19824.81;;;11.82
64904;BMP280;51401;48.882;12.598;2023-04-24T05:30:11;19882.81;;;11.81
64904;BMP280;51401;48.882;12.598;2023-04-24T05:32:37;19945.88;;;11.81
64904;BMP280;51401;48.882;12.598;2023-04-24T05:35:02;20099.41;;;11.78
64904;BMP280;51401;48.882;12.598;2023-04-24T05:37:28;20453.38;;;11.67
64904;BMP280;51401;48.882;12.598;2023-04-24T05:39:53;20333.56;;;11.74
64904;BMP280;51401;48.882;12.598;2023-04-24T05:42:18;20126.00;;;11.84
64904;BMP280;51401;48.882;12.598;2023-04-24T05:44:43;20088.41;;;11.86
64904;BMP280;51401;48.882;12.598;2023-04-24T05:47:09;20114.00;;;11.87
64904;BMP280;51401;48.882;12.598;2023-04-24T05:49:34;19905.97;;;11.96
64904;BMP280;51401;48.882;12.598;2023-04-24T05:51:59;19655.41;;;12.07
64904;BMP280;51401;48.882;12.598;2023-04-24T05:54:25;20180.22;;;11.90
64904;BMP280;51401;48.882;12.598;2023-04-24T05:56:50;20050.44;;;11.98
64904;BMP280;51401;48.882;12.598;2023-04-24T05:59:16;20151.53;;;11.98
64904;BMP280;51401;48.882;12.598;2023-04-24T06:01:41;20081.69;;;12.02
64904;BMP280;51401;48.882;12.598;2023-04-24T06:04:07;19796.03;;;12.14
64904;BMP280;51401;48.882;12.598;2023-04-24T06:06:32;19982.28;;;12.10
64904;BMP280;51401;48.882;12.598;2023-04-24T06:08:58;20078.56;;;12.11
64904;BMP280;51401;48.882;12.598;2023-04-24T06:11:24;20049.06;;;12.15
64904;BMP280;51401;48.882;12.598;2023-04-24T06:13:49;20102.66;;;12.18
64904;BMP280;51401;48.882;12.598;2023-04-24T06:16:15;20053.00;;;12.22
64904;BMP280;51401;48.882;12.598;2023-04-24T06:18:40;19852.94;;;12.33
64904;BMP280;51401;48.882;12.598;2023-04-24T06:21:06;20101.88;;;12.26
64904;BMP280;51401;48.882;12.598;2023-04-24T06:23:31;20268.38;;;12.24
64904;BMP280;51401;48.882;12.598;2023-04-24T06:25:58;20581.13;;;12.20
64904;BMP280;51401;48.882;12.598;2023-04-24T06:28:23;20981.19;;;12.11
64904;BMP280;51401;48.882;12.598;2023-04-24T06:30:48;20869.31;;;12.20
64904;BMP280;51401;48.882;12.598;2023-04-24T06:33:14;21146.56;;;12.15
64904;BMP280;51401;48.882;12.598;2023-04-24T06:35:39;20989.75;;;12.27
64904;BMP280;51401;48.882;12.598;2023-04-24T06:38:05;21639.03;;;12.12
64904;BMP280;51401;48.882;12.598;2023-04-24T06:40:30;21668.34;;;12.18
64904;BMP280;51401;48.882;12.598;2023-04-24T06:42:55;22370.66;;;12.04
64904;BMP280;51401;48.882;12.598;2023-04-24T06:45:22;22003.13;;;12.22
64904;BMP280;51401;48.882;12.598;2023-04-24T06:47:48;22414.06;;;12.15
64904;BMP280;51401;48.882;12.598;2023-04-24T06:50:13;22684.44;;;12.14
64904;BMP280;51401;48.882;12.598;2023-04-24T06:52:38;23248.94;;;12.05
64904;BMP280;51401;48.882;12.598;2023-04-24T06:55:04;23314.03;;;12.11
64904;BMP280;51401;48.882;12.598;2023-04-24T06:57:29;23205.34;;;12.22
64904;BMP280;51401;48.882;12.598;2023-04-24T06:59:55;23857.88;;;12.10
64904;BMP280;51401;48.882;12.598;2023-04-24T07:02:21;23734.72;;;12.23
64904;BMP280;51401;48.882;12.598;2023-04-24T07:04:46;24540.25;;;12.06
64904;BMP280;51401;48.882;12.598;2023-04-24T07:07:12;24829.19;;;12.07
64904;BMP280;51401;48.882;12.598;2023-04-24T07:09:39;25098.50;;;12.09
64904;BMP280;51401;48.882;12.598;2023-04-24T07:12:08;25317.47;;;12.13
64904;BMP280;51401;48.882;12.598;2023-04-24T07:14:33;25336.44;;;12.26
64904;BMP280;51401;48.882;12.598;2023-04-24T07:16:59;25387.56;;;12.45
64904;BMP280;51401;48.882;12.598;2023-04-24T07:19:24;25932.69;;;12.54
64904;BMP280;51401;48.882;12.598;2023-04-24T07:21:49;26679.69;;;12.67
64904;BMP280;51401;48.882;12.598;2023-04-24T07:24:15;27984.28;;;12.68
64904;BMP280;51401;48.882;12.598;2023-04-24T07:26:40;28837.47;;;12.91
64904;BMP280;51401;48.882;12.598;2023-04-24T07:29:06;30904.56;;;12.82
64904;BMP280;51401;48.882;12.598;2023-04-24T07:31:31;33101.56;;;12.77
64904;BMP280;51401;48.882;12.598;2023-04-24T07:33:57;35056.09;;;12.79
64904;BMP280;51401;48.882;12.598;2023-04-24T07:36:23;36673.63;;;12.98
64904;BMP280;51401;48.882;12.598;2023-04-24T07:38:49;39198.81;;;12.88
64904;BMP280;51401;48.882;12.598;2023-04-24T07:41:15;41241.34;;;12.97
64904;BMP280;51401;48.882;12.598;2023-04-24T07:43:41;43703.63;;;13.04
64904;BMP280;51401;48.882;12.598;2023-04-24T07:46:07;46741.34;;;13.04
64904;BMP280;51401;48.882;12.598;2023-04-24T07:48:32;49413.97;;;13.22
64904;BMP280;51401;48.882;12.598;2023-04-24T07:50:58;52924.72;;;13.11
64904;BMP280;51401;48.882;12.598;2023-04-24T07:53:23;56288.97;;;12.98
64904;BMP280;51401;48.882;12.598;2023-04-24T07:55:48;59171.34;;;12.99
64904;BMP280;51401;48.882;12.598;2023-04-24T07:58:14;61820.69;;;13.00
64904;BMP280;51401;48.882;12.598;2023-04-24T08:00:39;64022.00;;;13.14
64904;BMP280;51401;48.882;12.598;2023-04-24T08:03:04;65667.47;;;13.45
64904;BMP280;51401;48.882;12.598;2023-04-24T08:05:29;67738.78;;;13.47
64904;BMP280;51401;48.882;12.598;2023-04-24T08:07:55;69776.38;;;13.68
64904;BMP280;51401;48.882;12.598;2023-04-24T08:10:22;71225.38;;;13.88
64904;BMP280;51401;48.882;12.598;2023-04-24T08:12:47;72810.16;;;13.99
64904;BMP280;51401;48.882;12.598;2023-04-24T08:15:12;75142.16;;;13.49
64904;BMP280;51401;48.882;12.598;2023-04-24T08:17:38;76098.59;;;13.44
64904;BMP280;51401;48.882;12.598;2023-04-24T08:20:03;76699.78;;;13.59
64904;BMP280;51401;48.882;12.598;2023-04-24T08:22:30;76973.44;;;13.54
64904;BMP280;51401;48.882;12.598;2023-04-24T08:24:56;76970.47;;;13.76
64904;BMP280;51401;48.882;12.598;2023-04-24T08:27:22;77797.94;;;13.58
64904;BMP280;51401;48.882;12.598;2023-04-24T08:29:47;78398.66;;;13.12
64904;BMP280;51401;48.882;12.598;2023-04-24T08:32:13;78252.63;;;12.94
64904;BMP280;51401;48.882;12.598;2023-04-24T08:34:38;77956.81;;;12.97
64904;BMP280;51401;48.882;12.598;2023-04-24T08:37:03;77672.50;;;13.01
64904;BMP280;51401;48.882;12.598;2023-04-24T08:39:28;77715.59;;;13.03
64904;BMP280;51401;48.882;12.598;2023-04-24T08:41:55;77706.09;;;13.19
64904;BMP280;51401;48.882;12.598;2023-04-24T08:44:20;77392.63;;;13.27
64904;BMP280;51401;48.882;12.598;2023-04-24T08:46:47;77522.56;;;13.15
64904;BMP280;51401;48.882;12.598;2023-04-24T08:49:14;76724.56;;;12.95
64904;BMP280;51401;48.882;12.598;2023-04-24T08:51:43;75715.50;;;12.87
64904;BMP280;51401;48.882;12.598;2023-04-24T08:54:09;74754.13;;;12.72
64904;BMP280;51401;48.882;12.598;2023-04-24T08:56:36;73904.97;;;12.58
64904;BMP280;51401;48.882;12.598;2023-04-24T08:59:05;72889.22;;;12.65
64904;BMP280;51401;48.882;12.598;2023-04-24T09:01:32;71555.03;;;13.15
64904;BMP280;51401;48.882;12.598;2023-04-24T09:03:57;70978.94;;;13.48
64904;BMP280;51401;48.882;12.598;2023-04-24T09:06:25;71535.56;;;13.69
64904;BMP280;51401;48.882;12.598;2023-04-24T09:08:53;72869.00;;;14.13
64904;BMP280;51401;48.882;12.598;2023-04-24T09:11:19;74929.75;;;14.27
64904;BMP280;51401;48.882;12.598;2023-04-24T09:13:45;77363.50;;;14.47
64904;BMP280;51401;48.882;12.598;2023-04-24T09:16:11;79036.94;;;14.75
64904;BMP280;51401;48.882;12.598;2023-04-24T09:18:36;79604.34;;;15.16
64904;BMP280;51401;48.882;12.598;2023-04-24T09:21:05;81369.63;;;14.97
64904;BMP280;51401;48.882;12.598;2023-04-24T09:23:31;81796.88;;;14.88
64904;BMP280;51401;48.882;12.598;2023-04-24T09:25:58;82130.69;;;14.70
64904;BMP280;51401;48.882;12.598;2023-04-24T09:28:29;81744.09;;;14.83
64904;BMP280;51401;48.882;12.598;2023-04-24T09:31:09;84944.53;;;13.54
64904;BMP280;51401;48.882;12.598;2023-04-24T09:33:35;87014.50;;;12.87
64904;BMP280;51401;48.882;12.598;2023-04-24T09:36:00;87206.53;;;12.35
64904;BMP280;51401;48.882;12.598;2023-04-24T09:38:36;86666.44;;;11.96
64904;BMP280;51401;48.882;12.598;2023-04-24T09:41:04;86215.44;;;12.08
64904;BMP280;51401;48.882;12.598;2023-04-24T09:43:30;85560.81;;;11.98
64904;BMP280;51401;48.882;12.598;2023-04-24T09:45:57;85212.00;;;12.08
64904;BMP280;51401;48.882;12.598;2023-04-24T09:48:31;84457.13;;;12.49
64904;BMP280;51401;48.882;12.598;2023-04-24T09:50:56;84429.41;;;12.64
64904;BMP280;51401;48.882;12.598;2023-04-24T09:53:25;84426.81;;;12.98
64904;BMP280;51401;48.882;12.598;2023-04-24T09:55:51;84909.22;;;13.23
64904;BMP280;51401;48.882;12.598;2023-04-24T09:58:18;85122.94;;;13.72
64904;BMP280;51401;48.882;12.598;2023-04-24T10:00:49;85774.72;;;13.42
64904;BMP280;51401;48.882;12.598;2023-04-24T10:03:17;85564.84;;;13.32
64904;BMP280;51401;48.882;12.598;2023-04-24T10:05:46;85711.59;;;13.54
64904;BMP280;51401;48.882;12.598;2023-04-24T10:08:12;85525.25;;;13.64
64904;BMP280;51401;48.882;12.598;2023-04-24T10:10:40;85965.41;;;13.37
64904;BMP280;51401;48.882;12.598;2023-04-24T10:13:07;85760.88;;;13.87
64904;BMP280;51401;48.882;12.598;2023-04-24T10:15:32;86232.75;;;14.31
64904;BMP280;51401;48.882;12.598;2023-04-24T10:17:59;86288.84;;;15.45
64904;BMP280;51401;48.882;12.598;2023-04-24T10:20:26;86184.50;;;16.79
64904;BMP280;51401;48.882;12.598;2023-04-24T10:22:53;87877.25;;;17.47
64904;BMP280;51401;48.882;12.598;2023-04-24T10:25:20;88455.16;;;17.28
64904;BMP280;51401;48.882;12.598;2023-04-24T10:27:47;89189.44;;;17.05
64904;BMP280;51401;48.882;12.598;2023-04-24T10:30:13;88783.44;;;17.53
64904;BMP280;51401;48.882;12.598;2023-04-24T10:32:39;90101.38;;;15.83
64904;BMP280;51401;48.882;12.598;2023-04-24T10:35:06;89820.44;;;15.68
64904;BMP280;51401;48.882;12.598;2023-04-24T10:37:37;90209.25;;;16.05
64904;BMP280;51401;48.882;12.598;2023-04-24T10:40:03;90129.81;;;16.08
64904;BMP280;51401;48.882;12.598;2023-04-24T10:42:29;89901.56;;;15.29
64904;BMP280;51401;48.882;12.598;2023-04-24T10:44:54;89868.75;;;15.69
64904;BMP280;51401;48.882;12.598;2023-04-24T10:47:20;90190.25;;;15.45
64904;BMP280;51401;48.882;12.598;2023-04-24T10:49:46;90414.31;;;15.70
64904;BMP280;51401;48.882;12.598;2023-04-24T10:52:15;90307.34;;;15.96
64904;BMP280;51401;48.882;12.598;2023-04-24T10:54:44;90483.91;;;16.34
64904;BMP280;51401;48.882;12.598;2023-04-24T10:59:48;89947.06;;;16.53
64904;BMP280;51401;48.882;12.598;2023-04-24T11:02:14;90244.34;;;16.61
64904;BMP280;51401;48.882;12.598;2023-04-24T11:04:41;90244.22;;;16.59
64904;BMP280;51401;48.882;12.598;2023-04-24T11:07:08;90239.59;;;16.27
64904;BMP280;51401;48.882;12.598;2023-04-24T11:09:34;90150.88;;;16.42
64904;BMP280;51401;48.882;12.598;2023-04-24T11:12:11;90276.25;;;16.44
64904;BMP280;51401;48.882;12.598;2023-04-24T11:17:31;90460.44;;;16.47
64904;BMP280;51401;48.882;12.598;2023-04-24T11:20:06;90931.72;;;15.78
64904;BMP280;51401;48.882;12.598;2023-04-24T11:22:37;91029.19;;;16.28
64904;BMP280;51401;48.882;12.598;2023-04-24T11:25:03;91276.09;;;16.85
64904;BMP280;51401;48.882;12.598;2023-04-24T11:27:47;91552.34;;;17.15
64904;BMP280;51401;48.882;12.598;2023-04-24T11:30:17;91677.28;;;16.47
64904;BMP280;51401;48.882;12.598;2023-04-24T11:32:43;92225.38;;;16.41
64904;BMP280;51401;48.882;12.598;2023-04-24T11:35:18;92991.19;;;16.52
64904;BMP280;51401;48.882;12.598;2023-04-24T11:37:48;94461.25;;;16.68
64904;BMP280;51401;48.882;12.598;2023-04-24T11:40:16;95526.97;;;16.92
64904;BMP280;51401;48.882;12.598;2023-04-24T11:45:20;96341.13;;;17.20
64904;BMP280;51401;48.882;12.598;2023-04-24T11:47:46;96507.75;;;16.86
64904;BMP280;51401;48.882;12.598;2023-04-24T11:50:17;96536.31;;;18.08
64904;BMP280;51401;48.882;12.598;2023-04-24T11:52:44;96573.06;;;18.93
64904;BMP280;51401;48.882;12.598;2023-04-24T11:57:45;96726.47;;;17.81
64904;BMP280;51401;48.882;12.598;2023-04-24T12:00:18;96743.34;;;17.39
64904;BMP280;51401;48.882;12.598;2023-04-24T12:02:44;96730.78;;;16.28
64904;BMP280;51401;48.882;12.598;2023-04-24T12:05:19;96731.03;;;15.10
64904;BMP280;51401;48.882;12.598;2023-04-24T12:07:44;96730.91;;;14.92
64904;BMP280;51401;48.882;12.598;2023-04-24T12:10:10;96611.31;;;14.70
64904;BMP280;51401;48.882;12.598;2023-04-24T12:12:36;96254.94;;;13.86
64904;BMP280;51401;48.882;12.598;2023-04-24T12:15:06;93984.94;;;12.96
64904;BMP280;51401;48.882;12.598;2023-04-24T12:17:33;91981.75;;;12.27
64904;BMP280;51401;48.882;12.598;2023-04-24T12:20:06;88667.41;;;11.50
64904;BMP280;51401;48.882;12.598;2023-04-24T12:22:46;86797.66;;;11.70
64904;BMP280;51401;48.882;12.598;2023-04-24T12:25:12;86234.97;;;11.71
64904;BMP280;51401;48.882;12.598;2023-04-24T12:27:37;85350.47;;;11.71
64904;BMP280;51401;48.882;12.598;2023-04-24T12:30:09;84467.81;;;11.82
64904;BMP280;51401;48.882;12.598;2023-04-24T12:32:35;83473.75;;;12.10
64904;BMP280;51401;48.882;12.598;2023-04-24T12:35:00;82718.41;;;11.95
64904;BMP280;51401;48.882;12.598;2023-04-24T12:37:31;81885.53;;;12.47
64904;BMP280;51401;48.882;12.598;2023-04-24T12:40:08;81770.47;;;12.71
64904;BMP280;51401;48.882;12.598;2023-04-24T12:42:34;82082.94;;;12.87
64904;BMP280;51401;48.882;12.598;2023-04-24T12:45:05;82986.88;;;13.08
64904;BMP280;51401;48.882;12.598;2023-04-24T12:47:32;84490.47;;;13.44
64904;BMP280;51401;48.882;12.598;2023-04-24T12:49:57;85623.91;;;13.62
64904;BMP280;51401;48.882;12.598;2023-04-24T12:52:23;86639.28;;;14.36
64904;BMP280;51401;48.882;12.598;2023-04-24T12:54:52;87949.69;;;14.79
64904;BMP280;51401;48.882;12.598;2023-04-24T12:57:18;88586.44;;;15.38
64904;BMP280;51401;48.882;12.598;2023-04-24T12:59:43;89349.34;;;16.32
64904;BMP280;51401;48.882;12.598;2023-04-24T13:02:09;90125.06;;;16.98
64904;BMP280;51401;48.882;12.598;2023-04-24T13:04:35;91369.75;;;16.15
64904;BMP280;51401;48.882;12.598;2023-04-24T13:07:01;91298.31;;;16.32
64904;BMP280;51401;48.882;12.598;2023-04-24T13:09:26;91611.78;;;16.64
64904;BMP280;51401;48.882;12.598;2023-04-24T13:11:51;91486.00;;;16.78
64904;BMP280;51401;48.882;12.598;2023-04-24T13:14:16;91853.78;;;16.31
64904;BMP280;51401;48.882;12.598;2023-04-24T13:16:42;92026.13;;;15.70
64904;BMP280;51401;48.882;12.598;2023-04-24T13:19:07;91975.63;;;15.49
64904;BMP280;51401;48.882;12.598;2023-04-24T13:21:32;91832.31;;;15.15
64904;BMP280;51401;48.882;12.598;2023-04-24T13:23:57;91783.31;;;15.40
64904;BMP280;51401;48.882;12.598;2023-04-24T13:26:24;91644.16;;;15.91
64904;BMP280;51401;48.882;12.598;2023-04-24T13:28:49;91657.09;;;15.61
64904;BMP280;51401;48.882;12.598;2023-04-24T13:31:14;91777.75;;;15.17
64904;BMP280;51401;48.882;12.598;2023-04-24T13:33:39;91657.25;;;15.09
64904;BMP280;51401;48.882;12.598;2023-04-24T13:36:05;91643.53;;;15.00
64904;BMP280;51401;48.882;12.598;2023-04-24T13:38:30;91402.22;;;14.76
64904;BMP280;51401;48.882;12.598;2023-04-24T13:40:56;91671.63;;;14.56
64904;BMP280;51401;48.882;12.598;2023-04-24T13:43:21;91625.84;;;14.53
64904;BMP280;51401;48.882;12.598;2023-04-24T13:45:46;91798.78;;;14.17
64904;BMP280;51401;48.882;12.598;2023-04-24T13:48:18;91998.00;;;14.03
64904;BMP280;51401;48.882;12.598;2023-04-24T13:50:44;91930.09;;;13.92
64904;BMP280;51401;48.882;12.598;2023-04-24T13:53:09;91969.66;;;13.90
64904;BMP280;51401;48.882;12.598;2023-04-24T13:55:35;92157.25;;;14.02
64904;BMP280;51401;48.882;12.598;2023-04-24T13:58:01;92427.25;;;13.59
64904;BMP280;51401;48.882;12.598;2023-04-24T14:00:26;92319.63;;;13.77